sensor_id;sensor_type;location;lat;lon;timestamp;P1;durP1;ratioP1;P2;durP2;ratioP2
14688;SDS011;7432;48.728;9.154;2024-01-30T00:00:23;11.63;;;10.53;;
14688;SDS011;7432;48.728;9.154;2024-01-30T00:02:51;12.10;;;10.87;;
14688;SDS011;7432;48.728;9.154;2024-01-30T00:05:17;10.83;;;9.83;;
14688;SDS011;7432;48.728;9.154;2024-01-30T00:07:44;10.80;;;9.83;;
14688;SDS011;7432;48.728;9.154;2024-01-30T00:10:09;12.33;;;10.97;;
14688;SDS011;7432;48.728;9.154;2024-01-30T00:12:36;11.07;;;10.07;;
14688;SDS011;7432;48.728;9.154;2024-01-30T00:15:02;12.03;;;10.83;;
14688;SDS011;7432;48.728;9.154;2024-01-30T00:17:30;11.60;;;10.40;;
14688;SDS011;7432;48.728;9.154;2024-01-30T00:19:57;11.10;;;10.10;;
14688;SDS011;7432;48.728;9.154;2024-01-30T00:22:24;11.03;;;10.20;;
14688;SDS011;7432;48.728;9.154;2024-01-30T00:24:50;12.47;;;11.30;;
14688;SDS011;7432;48.728;9.154;2024-01-30T00:27:16;10.87;;;9.87;;
14688;SDS011;7432;48.728;9.154;2024-01-30T00:29:43;11.37;;;10.40;;
14688;SDS011;7432;48.728;9.154;2024-01-30T00:32:09;11.10;;;10.03;;
14688;SDS011;7432;48.728;9.154;2024-01-30T00:34:35;11.57;;;10.47;;
14688;SDS011;7432;48.728;9.154;2024-01-30T00:37:03;10.63;;;9.63;;
14688;SDS011;7432;48.728;9.154;2024-01-30T00:39:30;11.23;;;10.33;;
14688;SDS011;7432;48.728;9.154;2024-01-30T00:41:56;11.50;;;10.60;;
14688;SDS011;7432;48.728;9.154;2024-01-30T00:44:22;11.70;;;10.37;;
14688;SDS011;7432;48.728;9.154;2024-01-30T00:46:49;10.90;;;9.90;;
14688;SDS011;7432;48.728;9.154;2024-01-30T00:49:15;11.20;;;10.30;;
14688;SDS011;7432;48.728;9.154;2024-01-30T00:51:42;11.10;;;10.00;;
14688;SDS011;7432;48.728;9.154;2024-01-30T00:54:09;11.17;;;10.13;;
14688;SDS011;7432;48.728;9.154;2024-01-30T00:56:36;10.50;;;9.60;;
14688;SDS011;7432;48.728;9.154;2024-01-30T00:59:02;10.67;;;9.87;;
14688;SDS011;7432;48.728;9.154;2024-01-30T01:01:28;10.27;;;9.47;;
14688;SDS011;7432;48.728;9.154;2024-01-30T01:03:55;10.77;;;9.87;;
14688;SDS011;7432;48.728;9.154;2024-01-30T01:06:21;11.47;;;9.93;;
14688;SDS011;7432;48.728;9.154;2024-01-30T01:08:48;10.70;;;9.80;;
14688;SDS011;7432;48.728;9.154;2024-01-30T01:11:15;11.07;;;10.17;;
14688;SDS011;7432;48.728;9.154;2024-01-30T01:13:42;11.30;;;10.27;;
14688;SDS011;7432;48.728;9.154;2024-01-30T01:16:08;10.90;;;10.00;;
14688;SDS011;7432;48.728;9.154;2024-01-30T01:18:34;11.50;;;10.50;;
14688;SDS011;7432;48.728;9.154;2024-01-30T01:21:01;12.97;;;11.87;;
14688;SDS011;7432;48.728;9.154;2024-01-30T01:23:27;12.03;;;11.13;;
14688;SDS011;7432;48.728;9.154;2024-01-30T01:25:53;11.70;;;10.60;;
14688;SDS011;7432;48.728;9.154;2024-01-30T01:28:21;11.07;;;10.07;;
14688;SDS011;7432;48.728;9.154;2024-01-30T01:30:48;11.77;;;10.77;;
14688;SDS011;7432;48.728;9.154;2024-01-30T01:33:14;11.33;;;10.33;;
14688;SDS011;7432;48.728;9.154;2024-01-30T01:35:41;10.60;;;9.60;;
14688;SDS011;7432;48.728;9.154;2024-01-30T01:38:07;11.30;;;10.40;;
14688;SDS011;7432;48.728;9.154;2024-01-30T01:40:33;11.50;;;10.57;;
14688;SDS011;7432;48.728;9.154;2024-01-30T01:43:02;11.07;;;10.07;;
14688;SDS011;7432;48.728;9.154;2024-01-30T01:45:30;10.87;;;10.03;;
14688;SDS011;7432;48.728;9.154;2024-01-30T01:47:57;10.67;;;9.77;;
14688;SDS011;7432;48.728;9.154;2024-01-30T01:50:23;10.83;;;10.00;;
14688;SDS011;7432;48.728;9.154;2024-01-30T01:52:51;10.93;;;10.00;;
14688;SDS011;7432;48.728;9.154;2024-01-30T01:55:19;10.67;;;9.77;;
14688;SDS011;7432;48.728;9.154;2024-01-30T01:57:49;11.13;;;10.20;;
14688;SDS011;7432;48.728;9.154;2024-01-30T02:00:15;11.07;;;10.20;;
14688;SDS011;7432;48.728;9.154;2024-01-30T02:02:45;10.50;;;9.53;;
14688;SDS011;7432;48.728;9.154;2024-01-30T02:05:12;10.13;;;9.33;;
14688;SDS011;7432;48.728;9.154;2024-01-30T02:07:39;11.40;;;10.40;;
14688;SDS011;7432;48.728;9.154;2024-01-30T02:10:05;11.30;;;10.20;;
14688;SDS011;7432;48.728;9.154;2024-01-30T02:12:33;10.33;;;9.43;;
14688;SDS011;7432;48.728;9.154;2024-01-30T02:15:00;10.43;;;9.53;;
14688;SDS011;7432;48.728;9.154;2024-01-30T02:17:26;10.20;;;9.40;;
14688;SDS011;7432;48.728;9.154;2024-01-30T02:19:54;10.60;;;9.70;;
14688;SDS011;7432;48.728;9.154;2024-01-30T02:22:21;10.67;;;9.77;;
14688;SDS011;7432;48.728;9.154;2024-01-30T02:24:48;10.90;;;9.90;;
14688;SDS011;7432;48.728;9.154;2024-01-30T02:27:15;10.70;;;9.90;;
14688;SDS011;7432;48.728;9.154;2024-01-30T02:29:41;11.23;;;10.10;;
14688;SDS011;7432;48.728;9.154;2024-01-30T02:32:07;11.20;;;10.13;;
14688;SDS011;7432;48.728;9.154;2024-01-30T02:34:34;12.67;;;10.03;;
14688;SDS011;7432;48.728;9.154;2024-01-30T02:37:00;10.80;;;9.90;;
14688;SDS011;7432;48.728;9.154;2024-01-30T02:39:28;10.83;;;9.90;;
14688;SDS011;7432;48.728;9.154;2024-01-30T02:41:54;11.00;;;10.00;;
14688;SDS011;7432;48.728;9.154;2024-01-30T02:44:21;10.90;;;10.00;;
14688;SDS011;7432;48.728;9.154;2024-01-30T02:46:46;11.80;;;10.80;;
14688;SDS011;7432;48.728;9.154;2024-01-30T02:49:13;12.20;;;10.50;;
14688;SDS011;7432;48.728;9.154;2024-01-30T02:51:39;10.80;;;9.80;;
14688;SDS011;7432;48.728;9.154;2024-01-30T02:54:05;11.30;;;10.30;;
14688;SDS011;7432;48.728;9.154;2024-01-30T02:56:33;11.37;;;10.37;;
14688;SDS011;7432;48.728;9.154;2024-01-30T02:58:59;10.20;;;9.40;;
14688;SDS011;7432;48.728;9.154;2024-01-30T03:01:26;10.23;;;9.33;;
14688;SDS011;7432;48.728;9.154;2024-01-30T03:03:52;11.63;;;10.63;;
14688;SDS011;7432;48.728;9.154;2024-01-30T03:06:18;10.80;;;9.90;;
14688;SDS011;7432;48.728;9.154;2024-01-30T03:08:45;11.40;;;10.40;;
14688;SDS011;7432;48.728;9.154;2024-01-30T03:11:11;12.10;;;11.10;;
14688;SDS011;7432;48.728;9.154;2024-01-30T03:13:39;12.17;;;10.97;;
14688;SDS011;7432;48.728;9.154;2024-01-30T03:16:06;11.10;;;10.10;;
14688;SDS011;7432;48.728;9.154;2024-01-30T03:18:32;11.40;;;10.40;;
14688;SDS011;7432;48.728;9.154;2024-01-30T03:20:58;10.57;;;9.57;;
14688;SDS011;7432;48.728;9.154;2024-01-30T03:23:25;12.03;;;10.90;;
14688;SDS011;7432;48.728;9.154;2024-01-30T03:25:51;11.73;;;9.90;;
14688;SDS011;7432;48.728;9.154;2024-01-30T03:28:18;11.40;;;10.30;;
14688;SDS011;7432;48.728;9.154;2024-01-30T03:30:45;11.90;;;10.90;;
14688;SDS011;7432;48.728;9.154;2024-01-30T03:33:12;11.90;;;10.77;;
14688;SDS011;7432;48.728;9.154;2024-01-30T03:35:38;11.57;;;10.57;;
14688;SDS011;7432;48.728;9.154;2024-01-30T03:38:04;12.00;;;10.80;;
14688;SDS011;7432;48.728;9.154;2024-01-30T03:40:31;12.20;;;11.00;;
14688;SDS011;7432;48.728;9.154;2024-01-30T03:42:57;12.70;;;11.50;;
14688;SDS011;7432;48.728;9.154;2024-01-30T03:45:23;12.33;;;11.20;;
14688;SDS011;7432;48.728;9.154;2024-01-30T03:47:51;11.97;;;10.93;;
14688;SDS011;7432;48.728;9.154;2024-01-30T03:50:17;10.57;;;9.60;;
14688;SDS011;7432;48.728;9.154;2024-01-30T03:52:44;13.00;;;11.87;;
14688;SDS011;7432;48.728;9.154;2024-01-30T03:55:10;11.83;;;10.83;;
14688;SDS011;7432;48.728;9.154;2024-01-30T03:57:36;12.43;;;10.70;;
14688;SDS011;7432;48.728;9.154;2024-01-30T04:00:03;12.47;;;11.37;;
14688;SDS011;7432;48.728;9.154;2024-01-30T04:02:31;11.90;;;10.90;;
14688;SDS011;7432;48.728;9.154;2024-01-30T04:04:58;12.10;;;10.93;;
14688;SDS011;7432;48.728;9.154;2024-01-30T04:07:25;12.53;;;11.43;;
14688;SDS011;7432;48.728;9.154;2024-01-30T04:09:51;12.60;;;11.60;;
14688;SDS011;7432;48.728;9.154;2024-01-30T04:12:17;13.13;;;12.00;;
14688;SDS011;7432;48.728;9.154;2024-01-30T04:14:44;12.73;;;11.57;;
14688;SDS011;7432;48.728;9.154;2024-01-30T04:17:10;11.33;;;10.40;;
14688;SDS011;7432;48.728;9.154;2024-01-30T04:19:37;12.73;;;11.50;;
14688;SDS011;7432;48.728;9.154;2024-01-30T04:22:04;11.87;;;10.87;;
14688;SDS011;7432;48.728;9.154;2024-01-30T04:24:31;12.50;;;11.37;;
14688;SDS011;7432;48.728;9.154;2024-01-30T04:26:57;12.07;;;10.97;;
14688;SDS011;7432;48.728;9.154;2024-01-30T04:29:23;12.30;;;11.20;;
14688;SDS011;7432;48.728;9.154;2024-01-30T04:31:50;12.20;;;11.20;;
14688;SDS011;7432;48.728;9.154;2024-01-30T04:34:16;12.83;;;11.67;;
14688;SDS011;7432;48.728;9.154;2024-01-30T04:36:43;12.27;;;11.17;;
14688;SDS011;7432;48.728;9.154;2024-01-30T04:39:11;12.43;;;11.13;;
14688;SDS011;7432;48.728;9.154;2024-01-30T04:41:38;12.60;;;11.30;;
14688;SDS011;7432;48.728;9.154;2024-01-30T04:44:05;12.33;;;11.23;;
14688;SDS011;7432;48.728;9.154;2024-01-30T04:46:31;12.57;;;11.47;;
14688;SDS011;7432;48.728;9.154;2024-01-30T04:48:59;12.40;;;11.20;;
14688;SDS011;7432;48.728;9.154;2024-01-30T04:51:25;12.10;;;11.10;;
14688;SDS011;7432;48.728;9.154;2024-01-30T04:53:52;12.63;;;11.33;;
14688;SDS011;7432;48.728;9.154;2024-01-30T04:56:19;11.53;;;10.53;;
14688;SDS011;7432;48.728;9.154;2024-01-30T04:58:46;10.47;;;9.57;;
14688;SDS011;7432;48.728;9.154;2024-01-30T05:01:14;13.47;;;12.30;;
14688;SDS011;7432;48.728;9.154;2024-01-30T05:03:41;12.60;;;11.20;;
14688;SDS011;7432;48.728;9.154;2024-01-30T05:06:07;11.80;;;10.70;;
14688;SDS011;7432;48.728;9.154;2024-01-30T05:08:34;10.80;;;9.73;;
14688;SDS011;7432;48.728;9.154;2024-01-30T05:11:01;12.73;;;11.63;;
14688;SDS011;7432;48.728;9.154;2024-01-30T05:13:30;11.30;;;10.30;;
14688;SDS011;7432;48.728;9.154;2024-01-30T05:15:56;12.03;;;10.90;;
14688;SDS011;7432;48.728;9.154;2024-01-30T05:18:22;12.07;;;10.80;;
14688;SDS011;7432;48.728;9.154;2024-01-30T05:20:49;11.57;;;10.33;;
14688;SDS011;7432;48.728;9.154;2024-01-30T05:23:16;13.13;;;11.83;;
14688;SDS011;7432;48.728;9.154;2024-01-30T05:25:42;12.80;;;11.70;;
14688;SDS011;7432;48.728;9.154;2024-01-30T05:28:09;13.63;;;11.73;;
14688;SDS011;7432;48.728;9.154;2024-01-30T05:30:36;12.93;;;11.70;;
14688;SDS011;7432;48.728;9.154;2024-01-30T05:33:03;12.37;;;11.27;;
14688;SDS011;7432;48.728;9.154;2024-01-30T05:35:30;12.53;;;11.43;;
14688;SDS011;7432;48.728;9.154;2024-01-30T05:37:56;12.77;;;11.53;;
14688;SDS011;7432;48.728;9.154;2024-01-30T05:40:22;11.50;;;10.23;;
14688;SDS011;7432;48.728;9.154;2024-01-30T05:42:49;12.40;;;11.20;;
14688;SDS011;7432;48.728;9.154;2024-01-30T05:45:15;13.30;;;11.40;;
14688;SDS011;7432;48.728;9.154;2024-01-30T05:47:43;12.80;;;11.70;;
14688;SDS011;7432;48.728;9.154;2024-01-30T05:50:09;13.53;;;12.33;;
14688;SDS011;7432;48.728;9.154;2024-01-30T05:52:36;13.27;;;12.07;;
14688;SDS011;7432;48.728;9.154;2024-01-30T05:55:03;13.03;;;11.83;;
14688;SDS011;7432;48.728;9.154;2024-01-30T05:57:30;13.77;;;11.63;;
14688;SDS011;7432;48.728;9.154;2024-01-30T05:59:56;13.20;;;12.10;;
14688;SDS011;7432;48.728;9.154;2024-01-30T06:02:23;13.17;;;11.97;;
14688;SDS011;7432;48.728;9.154;2024-01-30T06:04:51;13.90;;;12.57;;
14688;SDS011;7432;48.728;9.154;2024-01-30T06:07:17;14.10;;;12.80;;
14688;SDS011;7432;48.728;9.154;2024-01-30T06:09:43;12.00;;;10.90;;
14688;SDS011;7432;48.728;9.154;2024-01-30T06:12:11;13.37;;;11.83;;
14688;SDS011;7432;48.728;9.154;2024-01-30T06:14:38;13.83;;;12.30;;
14688;SDS011;7432;48.728;9.154;2024-01-30T06:17:04;13.43;;;12.13;;
14688;SDS011;7432;48.728;9.154;2024-01-30T06:19:31;12.83;;;11.63;;
14688;SDS011;7432;48.728;9.154;2024-01-30T06:21:58;13.27;;;12.07;;
14688;SDS011;7432;48.728;9.154;2024-01-30T06:24:25;13.13;;;11.93;;
14688;SDS011;7432;48.728;9.154;2024-01-30T06:26:52;14.13;;;12.73;;
14688;SDS011;7432;48.728;9.154;2024-01-30T06:29:19;12.50;;;11.20;;
14688;SDS011;7432;48.728;9.154;2024-01-30T06:31:45;15.83;;;13.23;;
14688;SDS011;7432;48.728;9.154;2024-01-30T06:34:12;13.90;;;11.87;;
14688;SDS011;7432;48.728;9.154;2024-01-30T06:36:38;12.20;;;11.00;;
14688;SDS011;7432;48.728;9.154;2024-01-30T06:39:06;13.77;;;12.37;;
14688;SDS011;7432;48.728;9.154;2024-01-30T06:41:33;13.20;;;11.87;;
14688;SDS011;7432;48.728;9.154;2024-01-30T06:43:59;13.00;;;11.60;;
14688;SDS011;7432;48.728;9.154;2024-01-30T06:46:28;13.13;;;11.93;;
14688;SDS011;7432;48.728;9.154;2024-01-30T06:48:54;14.20;;;12.90;;
14688;SDS011;7432;48.728;9.154;2024-01-30T06:51:20;13.67;;;12.47;;
14688;SDS011;7432;48.728;9.154;2024-01-30T06:53:47;15.13;;;13.60;;
14688;SDS011;7432;48.728;9.154;2024-01-30T06:56:15;14.30;;;12.90;;
14688;SDS011;7432;48.728;9.154;2024-01-30T06:58:45;13.70;;;12.40;;
14688;SDS011;7432;48.728;9.154;2024-01-30T07:01:12;13.30;;;12.10;;
14688;SDS011;7432;48.728;9.154;2024-01-30T07:03:38;14.30;;;13.03;;
14688;SDS011;7432;48.728;9.154;2024-01-30T07:06:05;15.23;;;13.57;;
14688;SDS011;7432;48.728;9.154;2024-01-30T07:08:31;14.50;;;13.03;;
14688;SDS011;7432;48.728;9.154;2024-01-30T07:10:57;12.70;;;11.50;;
14688;SDS011;7432;48.728;9.154;2024-01-30T07:13:25;14.07;;;12.73;;
14688;SDS011;7432;48.728;9.154;2024-01-30T07:15:51;15.07;;;13.57;;
14688;SDS011;7432;48.728;9.154;2024-01-30T07:18:18;13.90;;;12.40;;
14688;SDS011;7432;48.728;9.154;2024-01-30T07:20:44;14.17;;;12.87;;
14688;SDS011;7432;48.728;9.154;2024-01-30T07:23:12;14.07;;;12.60;;
14688;SDS011;7432;48.728;9.154;2024-01-30T07:25:40;15.13;;;13.63;;
14688;SDS011;7432;48.728;9.154;2024-01-30T07:28:07;14.43;;;12.97;;
14688;SDS011;7432;48.728;9.154;2024-01-30T07:30:35;14.97;;;13.47;;
14688;SDS011;7432;48.728;9.154;2024-01-30T07:33:02;16.63;;;13.80;;
14688;SDS011;7432;48.728;9.154;2024-01-30T07:35:28;14.37;;;12.97;;
14688;SDS011;7432;48.728;9.154;2024-01-30T07:37:55;14.50;;;12.63;;
14688;SDS011;7432;48.728;9.154;2024-01-30T07:40:22;14.50;;;13.00;;
14688;SDS011;7432;48.728;9.154;2024-01-30T07:42:48;13.93;;;11.63;;
14688;SDS011;7432;48.728;9.154;2024-01-30T07:45:15;13.63;;;12.43;;
14688;SDS011;7432;48.728;9.154;2024-01-30T07:47:43;14.20;;;12.90;;
14688;SDS011;7432;48.728;9.154;2024-01-30T07:50:09;13.93;;;12.53;;
14688;SDS011;7432;48.728;9.154;2024-01-30T07:52:36;13.33;;;12.17;;
14688;SDS011;7432;48.728;9.154;2024-01-30T07:55:04;13.50;;;12.27;;
14688;SDS011;7432;48.728;9.154;2024-01-30T07:57:32;13.87;;;12.37;;
14688;SDS011;7432;48.728;9.154;2024-01-30T07:59:59;12.83;;;11.60;;
14688;SDS011;7432;48.728;9.154;2024-01-30T08:02:26;13.17;;;11.87;;
14688;SDS011;7432;48.728;9.154;2024-01-30T08:04:53;12.67;;;11.33;;
14688;SDS011;7432;48.728;9.154;2024-01-30T08:07:20;12.93;;;11.80;;
14688;SDS011;7432;48.728;9.154;2024-01-30T08:09:47;12.37;;;11.07;;
14688;SDS011;7432;48.728;9.154;2024-01-30T08:12:13;12.73;;;11.43;;
14688;SDS011;7432;48.728;9.154;2024-01-30T08:14:40;13.40;;;12.00;;
14688;SDS011;7432;48.728;9.154;2024-01-30T08:17:06;13.47;;;12.27;;
14688;SDS011;7432;48.728;9.154;2024-01-30T08:19:33;11.80;;;10.70;;
14688;SDS011;7432;48.728;9.154;2024-01-30T08:22:01;12.00;;;11.00;;
14688;SDS011;7432;48.728;9.154;2024-01-30T08:24:27;13.23;;;12.03;;
14688;SDS011;7432;48.728;9.154;2024-01-30T08:26:53;13.03;;;11.93;;
14688;SDS011;7432;48.728;9.154;2024-01-30T08:29:20;13.77;;;12.57;;
14688;SDS011;7432;48.728;9.154;2024-01-30T08:31:46;13.53;;;12.43;;
14688;SDS011;7432;48.728;9.154;2024-01-30T08:34:12;14.17;;;13.07;;
14688;SDS011;7432;48.728;9.154;2024-01-30T08:36:39;14.47;;;13.37;;
14688;SDS011;7432;48.728;9.154;2024-01-30T08:39:06;14.87;;;13.67;;
14688;SDS011;7432;48.728;9.154;2024-01-30T08:41:33;14.13;;;13.00;;
14688;SDS011;7432;48.728;9.154;2024-01-30T08:44:00;13.90;;;12.90;;
14688;SDS011;7432;48.728;9.154;2024-01-30T08:46:26;14.70;;;13.50;;
14688;SDS011;7432;48.728;9.154;2024-01-30T08:48:52;14.48;;;13.38;;
14688;SDS011;7432;48.728;9.154;2024-01-30T08:51:19;14.33;;;13.23;;
14688;SDS011;7432;48.728;9.154;2024-01-30T08:53:45;15.03;;;13.73;;
14688;SDS011;7432;48.728;9.154;2024-01-30T08:56:13;14.60;;;13.40;;
14688;SDS011;7432;48.728;9.154;2024-01-30T08:58:41;14.17;;;13.07;;
14688;SDS011;7432;48.728;9.154;2024-01-30T09:01:07;12.80;;;11.87;;
14688;SDS011;7432;48.728;9.154;2024-01-30T09:03:34;14.83;;;13.53;;
14688;SDS011;7432;48.728;9.154;2024-01-30T09:06:01;14.77;;;13.47;;
14688;SDS011;7432;48.728;9.154;2024-01-30T09:08:28;14.57;;;13.37;;
14688;SDS011;7432;48.728;9.154;2024-01-30T09:10:54;14.17;;;12.90;;
14688;SDS011;7432;48.728;9.154;2024-01-30T09:13:22;14.47;;;13.27;;
14688;SDS011;7432;48.728;9.154;2024-01-30T09:15:48;14.70;;;13.50;;
14688;SDS011;7432;48.728;9.154;2024-01-30T09:18:15;14.40;;;13.20;;
14688;SDS011;7432;48.728;9.154;2024-01-30T09:20:41;12.83;;;11.80;;
14688;SDS011;7432;48.728;9.154;2024-01-30T09:23:08;14.33;;;13.07;;
14688;SDS011;7432;48.728;9.154;2024-01-30T09:25:33;15.10;;;13.53;;
14688;SDS011;7432;48.728;9.154;2024-01-30T09:28:00;13.93;;;12.83;;
14688;SDS011;7432;48.728;9.154;2024-01-30T09:30:28;14.20;;;13.00;;
14688;SDS011;7432;48.728;9.154;2024-01-30T09:32:54;14.87;;;13.37;;
14688;SDS011;7432;48.728;9.154;2024-01-30T09:35:20;13.47;;;12.13;;
14688;SDS011;7432;48.728;9.154;2024-01-30T09:37:47;14.33;;;12.73;;
14688;SDS011;7432;48.728;9.154;2024-01-30T09:40:13;14.47;;;13.33;;
14688;SDS011;7432;48.728;9.154;2024-01-30T09:42:43;15.03;;;13.43;;
14688;SDS011;7432;48.728;9.154;2024-01-30T09:45:13;13.50;;;12.40;;
14688;SDS011;7432;48.728;9.154;2024-01-30T09:47:41;13.17;;;11.97;;
14688;SDS011;7432;48.728;9.154;2024-01-30T09:50:09;12.67;;;11.67;;
14688;SDS011;7432;48.728;9.154;2024-01-30T09:52:36;12.97;;;11.97;;
14688;SDS011;7432;48.728;9.154;2024-01-30T09:55:03;13.87;;;12.47;;
14688;SDS011;7432;48.728;9.154;2024-01-30T09:57:31;12.33;;;11.33;;
14688;SDS011;7432;48.728;9.154;2024-01-30T09:59:58;12.93;;;11.83;;
14688;SDS011;7432;48.728;9.154;2024-01-30T10:02:24;12.63;;;11.63;;
14688;SDS011;7432;48.728;9.154;2024-01-30T10:04:52;13.43;;;12.20;;
14688;SDS011;7432;48.728;9.154;2024-01-30T10:07:18;13.03;;;11.93;;
14688;SDS011;7432;48.728;9.154;2024-01-30T10:09:46;13.17;;;11.90;;
14688;SDS011;7432;48.728;9.154;2024-01-30T10:12:14;12.77;;;11.67;;
14688;SDS011;7432;48.728;9.154;2024-01-30T10:14:41;12.20;;;11.30;;
14688;SDS011;7432;48.728;9.154;2024-01-30T10:17:08;12.63;;;11.57;;
14688;SDS011;7432;48.728;9.154;2024-01-30T10:19:35;11.17;;;10.30;;
14688;SDS011;7432;48.728;9.154;2024-01-30T10:22:03;12.70;;;11.70;;
14688;SDS011;7432;48.728;9.154;2024-01-30T10:24:30;11.77;;;10.97;;
14688;SDS011;7432;48.728;9.154;2024-01-30T10:26:57;11.90;;;11.00;;
14688;SDS011;7432;48.728;9.154;2024-01-30T10:29:23;12.23;;;11.20;;
14688;SDS011;7432;48.728;9.154;2024-01-30T10:31:57;12.07;;;11.00;;
14688;SDS011;7432;48.728;9.154;2024-01-30T10:34:24;11.57;;;10.77;;
14688;SDS011;7432;48.728;9.154;2024-01-30T10:36:51;12.47;;;11.47;;
14688;SDS011;7432;48.728;9.154;2024-01-30T10:39:26;11.67;;;10.67;;
14688;SDS011;7432;48.728;9.154;2024-01-30T10:41:55;11.60;;;10.70;;
14688;SDS011;7432;48.728;9.154;2024-01-30T10:44:25;11.30;;;10.20;;
14688;SDS011;7432;48.728;9.154;2024-01-30T10:46:56;10.67;;;9.87;;
14688;SDS011;7432;48.728;9.154;2024-01-30T10:49:29;10.20;;;9.60;;
14688;SDS011;7432;48.728;9.154;2024-01-30T10:51:56;10.70;;;9.80;;
14688;SDS011;7432;48.728;9.154;2024-01-30T10:54:24;9.73;;;9.03;;
14688;SDS011;7432;48.728;9.154;2024-01-30T10:56:53;9.80;;;9.07;;
14688;SDS011;7432;48.728;9.154;2024-01-30T10:59:20;10.70;;;10.00;;
14688;SDS011;7432;48.728;9.154;2024-01-30T11:01:49;10.90;;;10.00;;
14688;SDS011;7432;48.728;9.154;2024-01-30T11:04:16;10.67;;;9.90;;
14688;SDS011;7432;48.728;9.154;2024-01-30T11:06:43;9.97;;;9.23;;
14688;SDS011;7432;48.728;9.154;2024-01-30T11:09:10;9.67;;;9.07;;
14688;SDS011;7432;48.728;9.154;2024-01-30T11:11:50;10.23;;;9.53;;
14688;SDS011;7432;48.728;9.154;2024-01-30T11:14:18;10.20;;;9.50;;
14688;SDS011;7432;48.728;9.154;2024-01-30T11:16:49;9.80;;;9.20;;
14688;SDS011;7432;48.728;9.154;2024-01-30T11:19:15;10.27;;;9.57;;
14688;SDS011;7432;48.728;9.154;2024-01-30T11:21:49;10.77;;;9.87;;
14688;SDS011;7432;48.728;9.154;2024-01-30T11:24:18;9.90;;;9.30;;
14688;SDS011;7432;48.728;9.154;2024-01-30T11:26:46;10.10;;;9.50;;
14688;SDS011;7432;48.728;9.154;2024-01-30T11:29:14;10.20;;;9.50;;
14688;SDS011;7432;48.728;9.154;2024-01-30T11:31:52;10.10;;;9.40;;
14688;SDS011;7432;48.728;9.154;2024-01-30T11:34:18;10.20;;;9.50;;
14688;SDS011;7432;48.728;9.154;2024-01-30T11:36:47;9.57;;;8.97;;
14688;SDS011;7432;48.728;9.154;2024-01-30T11:39:18;9.07;;;8.47;;
14688;SDS011;7432;48.728;9.154;2024-01-30T11:41:46;9.10;;;8.50;;
14688;SDS011;7432;48.728;9.154;2024-01-30T11:44:16;8.93;;;8.33;;
14688;SDS011;7432;48.728;9.154;2024-01-30T11:46:43;8.73;;;7.93;;
14688;SDS011;7432;48.728;9.154;2024-01-30T11:49:10;9.67;;;9.07;;
14688;SDS011;7432;48.728;9.154;2024-01-30T11:51:37;10.27;;;9.57;;
14688;SDS011;7432;48.728;9.154;2024-01-30T11:54:03;10.57;;;9.97;;
14688;SDS011;7432;48.728;9.154;2024-01-30T11:56:30;9.40;;;8.83;;
14688;SDS011;7432;48.728;9.154;2024-01-30T11:58:56;10.57;;;9.97;;
14688;SDS011;7432;48.728;9.154;2024-01-30T12:01:25;9.67;;;8.97;;
14688;SDS011;7432;48.728;9.154;2024-01-30T12:03:51;9.80;;;9.10;;
14688;SDS011;7432;48.728;9.154;2024-01-30T12:06:19;10.43;;;9.63;;
14688;SDS011;7432;48.728;9.154;2024-01-30T12:08:55;10.03;;;9.37;;
14688;SDS011;7432;48.728;9.154;2024-01-30T12:11:22;10.00;;;9.40;;
14688;SDS011;7432;48.728;9.154;2024-01-30T12:13:49;9.80;;;9.20;;
14688;SDS011;7432;48.728;9.154;2024-01-30T12:16:16;9.83;;;9.23;;
14688;SDS011;7432;48.728;9.154;2024-01-30T12:18:43;10.50;;;9.70;;
14688;SDS011;7432;48.728;9.154;2024-01-30T12:21:09;11.07;;;10.10;;
14688;SDS011;7432;48.728;9.154;2024-01-30T12:23:37;9.83;;;9.13;;
14688;SDS011;7432;48.728;9.154;2024-01-30T12:26:03;9.73;;;9.23;;
14688;SDS011;7432;48.728;9.154;2024-01-30T12:28:32;9.80;;;9.20;;
14688;SDS011;7432;48.728;9.154;2024-01-30T12:31:01;10.17;;;9.50;;
14688;SDS011;7432;48.728;9.154;2024-01-30T12:33:28;10.27;;;9.57;;
14688;SDS011;7432;48.728;9.154;2024-01-30T12:35:54;10.30;;;9.67;;
14688;SDS011;7432;48.728;9.154;2024-01-30T12:38:21;9.57;;;8.97;;
14688;SDS011;7432;48.728;9.154;2024-01-30T12:40:50;10.27;;;9.57;;
14688;SDS011;7432;48.728;9.154;2024-01-30T12:43:19;9.47;;;8.67;;
14688;SDS011;7432;48.728;9.154;2024-01-30T12:45:46;10.07;;;9.37;;
14688;SDS011;7432;48.728;9.154;2024-01-30T12:48:13;9.47;;;8.87;;
14688;SDS011;7432;48.728;9.154;2024-01-30T12:50:40;9.70;;;9.10;;
14688;SDS011;7432;48.728;9.154;2024-01-30T12:53:07;10.10;;;9.47;;
14688;SDS011;7432;48.728;9.154;2024-01-30T12:55:34;10.30;;;9.60;;
14688;SDS011;7432;48.728;9.154;2024-01-30T12:58:01;8.63;;;8.10;;
14688;SDS011;7432;48.728;9.154;2024-01-30T13:00:28;10.23;;;9.53;;
14688;SDS011;7432;48.728;9.154;2024-01-30T13:02:54;10.10;;;9.40;;
14688;SDS011;7432;48.728;9.154;2024-01-30T13:05:21;10.63;;;9.83;;
14688;SDS011;7432;48.728;9.154;2024-01-30T13:07:47;10.20;;;9.50;;
14688;SDS011;7432;48.728;9.154;2024-01-30T13:10:13;10.57;;;9.90;;
14688;SDS011;7432;48.728;9.154;2024-01-30T13:12:40;9.90;;;9.30;;
14688;SDS011;7432;48.728;9.154;2024-01-30T13:15:08;10.43;;;9.83;;
14688;SDS011;7432;48.728;9.154;2024-01-30T13:17:36;9.33;;;8.73;;
14688;SDS011;7432;48.728;9.154;2024-01-30T13:20:02;10.00;;;9.30;;
14688;SDS011;7432;48.728;9.154;2024-01-30T13:22:29;10.20;;;9.53;;
14688;SDS011;7432;48.728;9.154;2024-01-30T13:24:56;9.73;;;8.97;;
14688;SDS011;7432;48.728;9.154;2024-01-30T13:27:23;9.53;;;8.93;;
14688;SDS011;7432;48.728;9.154;2024-01-30T13:29:50;8.80;;;8.10;;
14688;SDS011;7432;48.728;9.154;2024-01-30T13:32:17;10.60;;;9.60;;
14688;SDS011;7432;48.728;9.154;2024-01-30T13:34:44;10.40;;;9.70;;
14688;SDS011;7432;48.728;9.154;2024-01-30T13:37:10;9.90;;;9.20;;
14688;SDS011;7432;48.728;9.154;2024-01-30T13:39:36;10.33;;;9.57;;
14688;SDS011;7432;48.728;9.154;2024-01-30T13:42:04;10.03;;;9.33;;
14688;SDS011;7432;48.728;9.154;2024-01-30T13:44:30;9.53;;;8.93;;
14688;SDS011;7432;48.728;9.154;2024-01-30T13:46:57;10.37;;;9.70;;
14688;SDS011;7432;48.728;9.154;2024-01-30T13:49:24;10.60;;;9.60;;
14688;SDS011;7432;48.728;9.154;2024-01-30T13:51:51;10.00;;;9.10;;
14688;SDS011;7432;48.728;9.154;2024-01-30T13:54:17;10.43;;;9.73;;
14688;SDS011;7432;48.728;9.154;2024-01-30T13:56:43;9.87;;;9.27;;
14688;SDS011;7432;48.728;9.154;2024-01-30T13:59:10;10.27;;;9.57;;
14688;SDS011;7432;48.728;9.154;2024-01-30T14:01:36;9.77;;;9.07;;
14688;SDS011;7432;48.728;9.154;2024-01-30T14:04:03;10.17;;;9.47;;
14688;SDS011;7432;48.728;9.154;2024-01-30T14:06:30;10.90;;;10.10;;
14688;SDS011;7432;48.728;9.154;2024-01-30T14:08:57;10.80;;;10.10;;
14688;SDS011;7432;48.728;9.154;2024-01-30T14:11:23;9.80;;;9.20;;
14688;SDS011;7432;48.728;9.154;2024-01-30T14:13:49;10.10;;;9.40;;
14688;SDS011;7432;48.728;9.154;2024-01-30T14:16:16;10.20;;;9.53;;
14688;SDS011;7432;48.728;9.154;2024-01-30T14:18:42;10.17;;;9.47;;
14688;SDS011;7432;48.728;9.154;2024-01-30T14:21:08;10.00;;;9.30;;
14688;SDS011;7432;48.728;9.154;2024-01-30T14:23:36;10.13;;;9.50;;
14688;SDS011;7432;48.728;9.154;2024-01-30T14:26:03;10.13;;;9.50;;
14688;SDS011;7432;48.728;9.154;2024-01-30T14:28:31;10.30;;;9.67;;
14688;SDS011;7432;48.728;9.154;2024-01-30T14:30:57;10.80;;;9.90;;
14688;SDS011;7432;48.728;9.154;2024-01-30T14:33:23;10.07;;;9.37;;
14688;SDS011;7432;48.728;9.154;2024-01-30T14:35:50;11.13;;;10.23;;
14688;SDS011;7432;48.728;9.154;2024-01-30T14:38:17;10.57;;;9.87;;